Time;durP1;ratioP1;P1;durP2;ratioP2;P2;SDS_P1;SDS_P2;PMS_P1;PMS_P2;Temp;Humidity;BMP_temperature;BMP_pressure;BME280_temperature;BME280_humidity;BME280_pressure;Samples;Min_cycle;Max_cycle;Signal;HPM_P1;HPM_P2
2023/08/09 00:00:32;;;;;;;4.05;1.92;;;17.20;79.00;;;;;;5133728;28;20102;-65
2023/08/09 00:03:02;;;;;;;3.38;2.08;;;17.20;79.50;;;;;;5132866;28;20417;-65
2023/08/09 00:05:27;;;;;;;4.13;2.08;;;17.20;79.80;;;;;;5133966;28;20019;-64
2023/08/09 00:07:54;;;;;;;3.47;2.20;;;17.30;80.00;;;;;;5133114;28;20023;-72
2023/08/09 00:10:20;;;;;;;3.13;1.90;;;17.30;80.10;;;;;;5133254;28;20043;-64
2023/08/09 00:12:45;;;;;;;3.13;2.03;;;17.30;80.40;;;;;;5133536;28;20023;-65
2023/08/09 00:15:11;;;;;;;4.30;1.77;;;17.30;80.10;;;;;;5133063;28;20035;-65
2023/08/09 00:17:37;;;;;;;4.45;2.60;;;17.30;80.40;;;;;;5133607;28;20027;-65
2023/08/09 00:20:04;;;;;;;2.97;2.05;;;17.30;80.10;;;;;;5132770;28;20413;-65
2023/08/09 00:22:30;;;;;;;3.22;1.75;;;17.30;80.10;;;;;;5133486;28;20415;-65
2023/08/09 00:24:56;;;;;;;3.85;1.80;;;17.30;79.70;;;;;;5133060;28;20495;-66
2023/08/09 00:27:22;;;;;;;3.13;1.90;;;17.30;79.60;;;;;;5133104;28;20371;-65
2023/08/09 00:29:48;;;;;;;5.60;2.00;;;17.40;79.50;;;;;;5133148;28;20019;-65
2023/08/09 00:32:14;;;;;;;4.03;1.75;;;17.40;79.50;;;;;;5132969;28;20027;-65
2023/08/09 00:34:39;;;;;;;2.40;1.60;;;17.40;78.80;;;;;;5121671;28;20144;-65
2023/08/09 00:37:05;;;;;;;2.65;1.60;;;17.40;77.90;;;;;;5112555;28;20031;-65
2023/08/09 00:39:31;;;;;;;3.42;1.80;;;17.40;77.70;;;;;;5112390;28;20030;-65
2023/08/09 00:41:56;;;;;;;2.63;1.65;;;17.40;77.20;;;;;;5112084;28;20111;-67
2023/08/09 00:44:22;;;;;;;3.28;1.80;;;17.40;77.30;;;;;;5112529;28;20024;-65
2023/08/09 00:46:48;;;;;;;2.90;1.63;;;17.40;76.80;;;;;;5112499;28;20028;-65
2023/08/09 00:49:14;;;;;;;2.88;1.65;;;17.40;77.00;;;;;;5112109;28;20062;-65
2023/08/09 00:51:39;;;;;;;3.47;1.83;;;17.40;77.30;;;;;;5113536;28;20036;-65
2023/08/09 00:54:05;;;;;;;3.60;1.67;;;17.40;77.30;;;;;;5115472;28;20032;-65
2023/08/09 00:56:31;;;;;;;3.42;1.55;;;17.50;77.40;;;;;;5116521;28;20028;-65
2023/08/09 00:58:57;;;;;;;2.70;1.90;;;17.50;77.40;;;;;;5115980;28;20106;-71
2023/08/09 01:01:22;;;;;;;6.38;2.03;;;17.50;77.10;;;;;;5115753;28;20023;-65
2023/08/09 01:03:48;;;;;;;3.33;2.28;;;17.50;77.20;;;;;;5115946;28;20103;-65
2023/08/09 01:06:31;;;;;;;3.75;2.20;;;17.50;77.30;;;;;;5115488;28;20076;-65
2023/08/09 01:09:13;;;;;;;2.88;1.67;;;17.50;77.30;;;;;;5097542;28;20475;-65
2023/08/09 01:11:51;;;;;;;4.35;2.40;;;17.50;77.70;;;;;;5115628;28;20020;-65
2023/08/09 01:14:20;;;;;;;3.95;1.73;;;17.50;78.40;;;;;;5115547;28;20031;-66
2023/08/09 01:16:46;;;;;;;3.08;1.92;;;17.50;78.80;;;;;;5115435;28;20050;-66
2023/08/09 01:19:46;;;;;;;3.55;2.00;;;17.50;79.10;;;;;;5124964;27;20349;-66
2023/08/09 01:22:17;;;;;;;3.60;2.10;;;17.50;79.60;;;;;;5135878;27;20027;-66
2023/08/09 01:24:45;;;;;;;2.15;1.70;;;17.50;79.20;;;;;;5136217;27;20038;-66
2023/08/09 01:27:11;;;;;;;3.97;1.98;;;17.50;78.80;;;;;;5135640;27;20072;-66
2023/08/09 01:29:38;;;;;;;4.10;2.00;;;17.40;78.40;;;;;;5135854;27;20027;-66
2023/08/09 01:32:04;;;;;;;3.03;1.60;;;17.50;78.20;;;;;;5135630;27;20103;-66
2023/08/09 01:34:30;;;;;;;3.05;1.80;;;17.40;78.00;;;;;;5136090;27;20124;-66
2023/08/09 01:36:58;;;;;;;3.95;1.33;;;17.40;77.40;;;;;;5136077;27;20096;-66
2023/08/09 01:39:29;;;;;;;3.15;1.55;;;17.40;77.40;;;;;;5135564;27;20049;-66
2023/08/09 01:41:56;;;;;;;2.65;1.70;;;17.40;77.10;;;;;;5136098;27;20028;-66
2023/08/09 01:44:23;;;;;;;6.82;1.50;;;17.40;77.30;;;;;;5135483;27;20034;-65
2023/08/09 01:46:49;;;;;;;3.55;1.80;;;17.40;77.50;;;;;;5136105;27;20023;-65
2023/08/09 01:49:17;;;;;;;9.40;1.92;;;17.40;77.40;;;;;;5135389;27;20133;-65
2023/08/09 01:51:43;;;;;;;2.88;1.55;;;17.40;77.40;;;;;;5135703;27;20029;-65
2023/08/09 01:54:11;;;;;;;2.85;1.30;;;17.40;77.60;;;;;;5134935;27;20027;-66
2023/08/09 01:56:37;;;;;;;1.83;1.63;;;17.40;77.00;;;;;;5135703;27;20023;-65
2023/08/09 01:59:05;;;;;;;3.22;1.42;;;17.40;76.00;;;;;;5135217;27;20020;-65
2023/08/09 02:01:31;;;;;;;2.55;1.60;;;17.40;76.00;;;;;;5135429;27;20019;-65
2023/08/09 02:03:57;;;;;;;3.88;1.80;;;17.40;76.10;;;;;;5133930;27;20460;-65
2023/08/09 02:06:23;;;;;;;2.20;1.40;;;17.40;76.00;;;;;;5134608;27;20034;-65
2023/08/09 02:08:49;;;;;;;1.73;1.40;;;17.40;75.90;;;;;;5134947;27;20106;-65
2023/08/09 02:11:14;;;;;;;2.30;1.33;;;17.40;75.70;;;;;;5134473;27;20030;-65
2023/08/09 02:13:40;;;;;;;1.63;1.38;;;17.40;75.20;;;;;;5134645;27;20072;-65
2023/08/09 02:16:06;;;;;;;2.10;1.38;;;17.40;74.70;;;;;;5134801;27;20038;-66
2023/08/09 02:18:34;;;;;;;2.47;1.40;;;17.40;74.80;;;;;;5135041;27;20023;-65
2023/08/09 02:21:02;;;;;;;4.40;1.38;;;17.40;74.60;;;;;;5134954;27;20475;-65
2023/08/09 02:23:28;;;;;;;2.92;1.40;;;17.40;74.70;;;;;;5134974;27;20023;-65
2023/08/09 02:25:54;;;;;;;3.65;1.80;;;17.30;75.10;;;;;;5135081;27;20068;-66
2023/08/09 02:28:21;;;;;;;1.92;1.20;;;17.30;75.30;;;;;;5134463;27;20133;-64
2023/08/09 02:30:46;;;;;;;1.95;1.40;;;17.30;75.30;;;;;;5134774;27;20032;-66
2023/08/09 02:33:12;;;;;;;2.08;1.40;;;17.30;75.30;;;;;;5130322;27;20024;-65
2023/08/09 02:36:07;;;;;;;2.72;1.38;;;17.30;75.50;;;;;;5134717;27;20071;-66
2023/08/09 02:38:33;;;;;;;4.80;1.70;;;17.30;75.90;;;;;;5116959;27;20035;-65
2023/08/09 02:41:04;;;;;;;3.70;1.67;;;17.30;76.00;;;;;;5116302;27;20383;-65
2023/08/09 02:43:30;;;;;;;4.18;1.40;;;17.30;76.50;;;;;;5134986;27;20035;-65
2023/08/09 02:45:56;;;;;;;1.98;1.25;;;17.30;76.50;;;;;;5134388;27;20056;-65
2023/08/09 02:48:22;;;;;;;2.50;1.30;;;17.30;76.60;;;;;;5133526;27;20394;-64
2023/08/09 02:50:48;;;;;;;2.63;1.70;;;17.30;76.60;;;;;;5134605;27;20035;-66
2023/08/09 02:53:15;;;;;;;2.90;1.60;;;17.30;76.70;;;;;;5133972;27;20020;-66
2023/08/09 02:55:42;;;;;;;2.33;1.42;;;17.30;76.90;;;;;;5134456;27;20031;-65
2023/08/09 02:58:07;;;;;;;2.80;1.50;;;17.40;77.20;;;;;;5133543;27;20456;-66
2023/08/09 03:00:33;;;;;;;3.47;1.77;;;17.30;78.00;;;;;;5134223;27;20034;-66
2023/08/09 03:03:00;;;;;;;2.15;1.88;;;17.30;78.10;;;;;;5134121;27;20019;-66
2023/08/09 03:05:27;;;;;;;2.25;1.50;;;17.30;78.60;;;;;;5133800;27;20019;-66
2023/08/09 03:07:53;;;;;;;1.77;1.10;;;17.30;78.60;;;;;;5134149;27;20111;-66
2023/08/09 03:10:19;;;;;;;2.97;1.67;;;17.40;79.00;;;;;;5133614;27;20059;-66
2023/08/09 03:12:44;;;;;;;4.05;1.50;;;17.40;78.80;;;;;;5134088;27;20027;-66
2023/08/09 03:15:10;;;;;;;2.83;1.70;;;17.40;78.80;;;;;;5132946;27;20070;-66
2023/08/09 03:17:36;;;;;;;2.17;1.70;;;17.30;78.50;;;;;;5134084;27;20049;-66
2023/08/09 03:20:09;;;;;;;2.30;1.50;;;17.30;78.70;;;;;;5133468;27;20051;-65
2023/08/09 03:22:35;;;;;;;2.67;1.58;;;17.30;77.50;;;;;;5133824;27;20459;-65
2023/08/09 03:25:00;;;;;;;1.75;1.38;;;17.30;76.70;;;;;;5133949;27;20035;-66
2023/08/09 03:27:26;;;;;;;4.13;1.60;;;17.30;76.60;;;;;;5133461;27;20439;-66
2023/08/09 03:29:51;;;;;;;2.30;1.20;;;17.30;76.10;;;;;;5133873;27;20029;-66
2023/08/09 03:32:17;;;;;;;2.67;1.40;;;17.30;76.00;;;;;;5133372;27;20066;-66
2023/08/09 03:34:42;;;;;;;2.63;1.55;;;17.30;75.90;;;;;;5133784;27;20409;-66
2023/08/09 03:37:08;;;;;;;4.60;1.83;;;17.40;75.50;;;;;;5133511;27;20038;-65
2023/08/09 03:39:34;;;;;;;2.72;1.65;;;17.40;75.60;;;;;;5133579;27;20465;-66
2023/08/09 03:42:00;;;;;;;1.50;1.30;;;17.40;76.10;;;;;;5133576;27;20035;-65
2023/08/09 03:44:26;;;;;;;3.08;1.20;;;17.40;76.00;;;;;;5133120;27;20023;-66
2023/08/09 03:46:51;;;;;;;2.67;1.45;;;17.50;76.50;;;;;;5133583;28;20072;-66
2023/08/09 03:49:17;;;;;;;3.58;1.65;;;17.50;76.80;;;;;;5132964;28;20051;-66
2023/08/09 03:51:43;;;;;;;5.80;2.60;;;17.50;77.20;;;;;;5133296;28;20539;-66
2023/08/09 03:54:08;;;;;;;6.95;2.58;;;17.50;77.00;;;;;;5133464;28;20023;-66
2023/08/09 03:56:34;;;;;;;2.08;1.40;;;17.50;76.90;;;;;;5133231;28;20041;-65
2023/08/09 03:58:59;;;;;;;4.05;1.67;;;17.50;76.90;;;;;;5133762;28;20038;-65
2023/08/09 04:01:25;;;;;;;3.95;1.65;;;17.50;77.10;;;;;;5114590;28;20027;-64
2023/08/09 04:03:51;;;;;;;3.05;1.92;;;17.50;77.10;;;;;;5133322;28;20468;-65
2023/08/09 04:06:16;;;;;;;2.65;1.45;;;17.50;77.40;;;;;;5132896;28;20189;-65
2023/08/09 04:08:42;;;;;;;4.43;1.60;;;17.50;77.80;;;;;;5133377;28;20024;-64
2023/08/09 04:11:07;;;;;;;1.73;1.40;;;17.60;78.00;;;;;;5133369;28;20034;-65
2023/08/09 04:13:33;;;;;;;3.13;1.90;;;17.60;78.60;;;;;;5132602;28;20072;-64
2023/08/09 04:15:59;;;;;;;5.78;1.95;;;17.60;77.60;;;;;;5133381;28;20379;-64
2023/08/09 04:18:25;;;;;;;4.53;1.95;;;17.60;77.50;;;;;;5132861;28;20371;-67
2023/08/09 04:20:50;;;;;;;3.03;2.00;;;17.60;77.70;;;;;;5132906;28;20092;-66
2023/08/09 04:23:18;;;;;;;3.78;2.00;;;17.60;77.80;;;;;;5132868;28;20023;-66
2023/08/09 04:25:44;;;;;;;4.43;1.88;;;17.60;77.90;;;;;;5133341;27;20020;-66
2023/08/09 04:28:10;;;;;;;6.30;2.20;;;17.60;78.10;;;;;;5136627;27;20027;-66
2023/08/09 04:30:36;;;;;;;2.78;1.90;;;17.60;78.60;;;;;;5136708;27;20027;-66
2023/08/09 04:33:05;;;;;;;6.75;2.45;;;17.60;79.30;;;;;;5133680;27;20031;-66
2023/08/09 04:35:31;;;;;;;6.13;2.17;;;17.60;78.80;;;;;;5136554;27;20087;-66
2023/08/09 04:37:57;;;;;;;7.28;2.42;;;17.60;78.70;;;;;;5137053;27;20031;-65
2023/08/09 04:40:25;;;;;;;5.47;2.40;;;17.60;79.30;;;;;;5136832;27;20031;-66
2023/08/09 04:42:51;;;;;;;3.33;2.22;;;17.60;79.50;;;;;;5136916;27;20034;-66
2023/08/09 04:45:17;;;;;;;4.90;2.20;;;17.60;79.30;;;;;;5136421;27;20114;-66
2023/08/09 04:47:43;;;;;;;3.85;2.28;;;17.70;79.20;;;;;;5136830;27;20114;-66
2023/08/09 04:50:09;;;;;;;6.00;2.30;;;17.70;79.80;;;;;;5136181;27;20444;-66
2023/08/09 04:52:36;;;;;;;3.60;2.30;;;17.70;80.20;;;;;;5135938;27;20059;-66
2023/08/09 04:55:03;;;;;;;4.13;2.20;;;17.70;79.20;;;;;;5136473;27;20042;-66
2023/08/09 04:57:30;;;;;;;7.40;2.95;;;17.70;79.00;;;;;;5135958;27;20072;-66
2023/08/09 04:59:56;;;;;;;3.55;2.33;;;17.70;79.10;;;;;;5136141;27;20359;-66
2023/08/09 05:02:22;;;;;;;3.78;2.35;;;17.80;79.30;;;;;;5135441;27;20031;-66
2023/08/09 05:04:47;;;;;;;4.18;2.50;;;17.80;79.50;;;;;;5136432;27;20031;-66
2023/08/09 05:07:13;;;;;;;3.30;2.30;;;17.80;79.40;;;;;;5136483;27;20027;-65
2023/08/09 05:09:39;;;;;;;3.85;2.40;;;17.80;79.40;;;;;;5136064;27;20050;-65
2023/08/09 05:12:05;;;;;;;3.83;1.90;;;17.90;79.40;;;;;;5136189;27;20519;-65
2023/08/09 05:14:31;;;;;;;3.53;2.08;;;17.90;79.20;;;;;;5135582;27;20039;-66
2023/08/09 05:16:56;;;;;;;4.25;1.98;;;17.90;78.60;;;;;;5136217;27;20027;-66
2023/08/09 05:19:22;;;;;;;3.35;2.33;;;17.90;78.50;;;;;;5135797;27;20038;-67
2023/08/09 05:21:48;;;;;;;4.43;2.25;;;17.90;78.60;;;;;;5136286;27;20519;-66
2023/08/09 05:24:14;;;;;;;3.88;2.10;;;17.90;78.90;;;;;;5136408;27;20058;-65
2023/08/09 05:26:40;;;;;;;2.58;2.00;;;17.90;79.40;;;;;;5135680;27;20023;-67
2023/08/09 05:29:05;;;;;;;5.43;2.88;;;18.00;79.80;;;;;;5135720;27;20034;-66
2023/08/09 05:31:31;;;;;;;7.80;2.50;;;18.00;80.20;;;;;;5135478;27;20019;-66
2023/08/09 05:33:57;;;;;;;3.35;2.47;;;18.00;80.10;;;;;;5135919;27;20042;-65
2023/08/09 05:36:23;;;;;;;4.18;2.30;;;18.00;80.20;;;;;;5135404;27;20027;-68
2023/08/09 05:38:48;;;;;;;6.68;2.25;;;18.00;80.50;;;;;;5135241;27;20023;-67
2023/08/09 05:41:14;;;;;;;5.82;2.78;;;18.00;81.50;;;;;;5134876;27;20027;-66
2023/08/09 05:43:40;;;;;;;5.75;2.83;;;18.10;82.60;;;;;;5134753;27;20039;-67
2023/08/09 05:46:05;;;;;;;8.57;3.33;;;18.00;81.80;;;;;;5135032;27;20024;-67
2023/08/09 05:48:31;;;;;;;8.40;2.38;;;18.10;81.10;;;;;;5134822;27;20065;-67
2023/08/09 05:50:57;;;;;;;4.65;2.10;;;18.10;80.70;;;;;;5117290;27;20478;-67
2023/08/09 05:53:22;;;;;;;7.50;2.20;;;18.10;80.60;;;;;;5135082;27;20019;-68
2023/08/09 05:55:48;;;;;;;7.10;2.50;;;18.10;80.80;;;;;;5135126;27;20031;-67
2023/08/09 05:58:15;;;;;;;5.13;2.20;;;18.20;79.60;;;;;;5135094;27;20439;-67
2023/08/09 06:00:40;;;;;;;8.13;2.40;;;18.20;79.00;;;;;;5135011;27;20499;-67
2023/08/09 06:03:06;;;;;;;6.70;2.63;;;18.20;78.20;;;;;;5135323;27;20023;-67
2023/08/09 06:05:32;;;;;;;5.07;2.28;;;18.30;77.80;;;;;;5134747;27;20091;-66
2023/08/09 06:07:58;;;;;;;4.90;2.17;;;18.30;77.30;;;;;;5135220;27;20031;-67
2023/08/09 06:10:25;;;;;;;3.78;2.28;;;18.40;76.60;;;;;;5116163;27;20382;-67
2023/08/09 06:12:54;;;;;;;5.32;2.42;;;18.50;76.80;;;;;;5135110;27;20035;-68
2023/08/09 06:15:20;;;;;;;5.63;2.10;;;18.50;77.80;;;;;;5135034;27;20031;-68
2023/08/09 06:17:46;;;;;;;5.25;2.17;;;18.60;78.80;;;;;;5134625;27;20499;-67
2023/08/09 06:20:16;;;;;;;3.72;2.00;;;18.60;78.70;;;;;;5134500;27;20019;-66
2023/08/09 06:22:42;;;;;;;6.68;2.30;;;18.60;78.90;;;;;;5134535;27;20034;-67
2023/08/09 06:25:09;;;;;;;3.70;1.92;;;18.70;78.90;;;;;;5135007;27;20031;-67
2023/08/09 06:27:35;;;;;;;5.15;2.10;;;18.70;78.90;;;;;;5134542;27;20022;-67
2023/08/09 06:30:01;;;;;;;3.80;2.05;;;18.70;79.00;;;;;;5134959;27;20099;-67
2023/08/09 06:32:28;;;;;;;13.10;2.33;;;18.80;79.00;;;;;;5134536;27;20051;-68
2023/08/09 06:34:53;;;;;;;6.50;2.25;;;18.80;78.40;;;;;;5134814;27;20027;-67
2023/08/09 06:37:19;;;;;;;5.97;2.40;;;18.80;78.60;;;;;;5134853;27;20031;-67
2023/08/09 06:39:45;;;;;;;5.30;2.40;;;18.90;78.60;;;;;;5112409;27;20038;-67
2023/08/09 06:42:12;;;;;;;4.97;2.53;;;18.90;77.70;;;;;;5116381;27;20053;-67
2023/08/09 06:44:38;;;;;;;5.95;2.65;;;18.90;78.20;;;;;;5133961;27;20037;-67
2023/08/09 06:47:04;;;;;;;4.65;2.80;;;18.90;78.80;;;;;;5134569;27;20024;-66
2023/08/09 06:49:30;;;;;;;8.95;2.70;;;19.00;79.00;;;;;;5133565;27;20047;-67
2023/08/09 06:51:58;;;;;;;7.47;2.95;;;19.00;79.10;;;;;;5134438;27;20181;-67
2023/08/09 06:54:24;;;;;;;7.57;2.83;;;19.10;79.50;;;;;;5134305;27;20027;-66
2023/08/09 06:56:50;;;;;;;6.43;2.78;;;19.10;81.20;;;;;;5134507;27;20031;-66
2023/08/09 06:59:16;;;;;;;6.57;3.10;;;19.10;82.50;;;;;;5134328;27;20027;-66
2023/08/09 07:01:43;;;;;;;8.48;3.20;;;19.10;82.80;;;;;;5133669;27;20430;-66
2023/08/09 07:04:09;;;;;;;7.45;2.80;;;19.10;83.60;;;;;;5134364;27;20034;-66
2023/08/09 07:06:34;;;;;;;9.25;3.08;;;19.10;83.70;;;;;;5133593;27;20406;-66
2023/08/09 07:09:00;;;;;;;9.52;3.10;;;19.10;84.20;;;;;;5134533;27;20135;-66
2023/08/09 07:11:26;;;;;;;11.73;3.17;;;19.10;83.50;;;;;;5134052;27;20027;-72
2023/08/09 07:13:51;;;;;;;9.18;2.78;;;19.10;83.60;;;;;;5133959;27;20054;-66
2023/08/09 07:16:18;;;;;;;11.20;2.88;;;19.10;84.00;;;;;;5134188;27;20088;-66
2023/08/09 07:18:43;;;;;;;6.85;2.65;;;19.20;85.60;;;;;;5133494;27;20103;-65
2023/08/09 07:21:09;;;;;;;5.53;2.42;;;19.10;87.60;;;;;;5134216;27;20402;-66
2023/08/09 07:23:35;;;;;;;5.07;1.85;;;19.10;88.10;;;;;;5133696;27;20094;-66
2023/08/09 07:26:01;;;;;;;5.88;2.10;;;19.10;88.90;;;;;;5134094;27;20027;-65
2023/08/09 07:28:26;;;;;;;5.22;2.20;;;19.00;87.60;;;;;;5133980;27;20102;-65
2023/08/09 07:30:52;;;;;;;2.67;1.88;;;18.90;88.60;;;;;;5133522;27;20084;-65
2023/08/09 07:33:21;;;;;;;4.82;2.58;;;18.90;88.30;;;;;;5133943;27;20088;-66
2023/08/09 07:35:48;;;;;;;6.72;2.05;;;18.90;88.20;;;;;;5133335;27;20035;-67
2023/08/09 07:38:14;;;;;;;5.05;2.03;;;18.90;88.00;;;;;;5133408;27;20459;-67
2023/08/09 07:40:40;;;;;;;5.93;1.92;;;19.00;87.30;;;;;;5133334;27;20066;-68
2023/08/09 07:43:06;;;;;;;4.60;2.10;;;19.00;86.00;;;;;;5134227;27;20034;-67
2023/08/09 07:45:32;;;;;;;5.82;2.83;;;19.10;85.40;;;;;;5133460;27;20061;-67
2023/08/09 07:47:57;;;;;;;4.97;2.30;;;19.00;85.20;;;;;;5133977;27;20087;-65
2023/08/09 07:50:23;;;;;;;3.35;1.90;;;19.10;84.20;;;;;;5133325;28;20039;-67
2023/08/09 07:52:49;;;;;;;6.65;1.70;;;19.10;82.90;;;;;;5133371;28;20027;-67
2023/08/09 07:55:14;;;;;;;3.25;1.90;;;19.10;82.70;;;;;;5133618;28;20035;-66
2023/08/09 07:57:40;;;;;;;2.47;1.70;;;19.10;82.10;;;;;;5133231;28;20467;-67
2023/08/09 08:00:14;;;;;;;5.68;2.45;;;19.20;82.10;;;;;;5133697;27;20374;-67
2023/08/09 08:02:42;;;;;;;4.53;1.83;;;19.20;82.20;;;;;;5136299;27;20061;-67
2023/08/09 08:05:11;;;;;;;2.58;1.92;;;19.20;82.10;;;;;;5137958;27;20068;-66
2023/08/09 08:07:40;;;;;;;4.30;2.10;;;19.30;82.00;;;;;;5137419;27;20034;-66
2023/08/09 08:10:13;;;;;;;4.35;2.03;;;19.30;81.50;;;;;;5137771;27;20019;-66
2023/08/09 08:12:40;;;;;;;2.22;1.75;;;19.40;81.80;;;;;;5137022;27;20011;-66
2023/08/09 08:15:07;;;;;;;7.60;2.03;;;19.40;82.50;;;;;;5137747;27;20027;-66
2023/08/09 08:17:35;;;;;;;7.07;2.47;;;19.50;83.20;;;;;;5137533;27;20049;-66
2023/08/09 08:20:05;;;;;;;4.88;2.30;;;19.50;83.70;;;;;;5137358;27;20027;-66
2023/08/09 08:22:30;;;;;;;3.60;2.20;;;19.60;83.80;;;;;;5137338;27;20038;-66
2023/08/09 08:24:56;;;;;;;5.72;2.28;;;19.60;83.20;;;;;;5137354;27;20031;-66
2023/08/09 08:27:22;;;;;;;5.10;2.25;;;19.70;83.30;;;;;;5137465;27;20030;-66
2023/08/09 08:29:47;;;;;;;4.22;1.95;;;19.80;83.70;;;;;;5136966;27;20352;-66
2023/08/09 08:32:13;;;;;;;4.95;2.25;;;19.80;83.40;;;;;;5136910;27;20031;-66
2023/08/09 08:34:39;;;;;;;7.38;2.00;;;19.90;83.50;;;;;;5136669;27;20027;-66
2023/08/09 08:37:04;;;;;;;5.13;1.98;;;19.90;84.60;;;;;;5137218;27;20539;-66
2023/08/09 08:39:35;;;;;;;5.90;1.92;;;20.00;84.10;;;;;;5137125;27;20059;-66
2023/08/09 08:42:01;;;;;;;4.85;2.20;;;20.00;81.10;;;;;;5137100;27;20495;-67
2023/08/09 08:44:27;;;;;;;5.60;2.63;;;20.00;79.00;;;;;;5133577;27;20046;-67
2023/08/09 08:46:52;;;;;;;8.32;2.50;;;20.00;79.80;;;;;;5136637;27;20251;-67
2023/08/09 08:49:23;;;;;;;10.45;3.35;;;20.00;80.30;;;;;;5136617;27;20043;-67
2023/08/09 08:51:52;;;;;;;8.55;3.90;;;20.00;80.40;;;;;;5136525;27;20038;-67
2023/08/09 08:54:19;;;;;;;8.27;3.35;;;20.00;81.70;;;;;;5136951;27;20031;-67
2023/08/09 08:56:45;;;;;;;13.63;3.55;;;19.90;82.80;;;;;;5136556;27;20027;-67
2023/08/09 08:59:11;;;;;;;7.75;3.30;;;19.80;85.10;;;;;;5136576;27;20070;-67
2023/08/09 09:01:37;;;;;;;8.00;4.15;;;19.80;86.70;;;;;;5136080;27;20047;-68
2023/08/09 09:04:03;;;;;;;5.90;3.30;;;19.80;88.40;;;;;;5136766;27;20463;-67
2023/08/09 09:06:28;;;;;;;11.25;4.35;;;19.70;89.30;;;;;;5136559;27;20085;-67
2023/08/09 09:08:55;;;;;;;13.15;3.67;;;19.70;90.50;;;;;;5136182;27;20062;-67
2023/08/09 09:11:22;;;;;;;5.00;3.03;;;19.60;92.20;;;;;;5136533;27;20051;-67
2023/08/09 09:13:50;;;;;;;8.52;3.47;;;19.60;92.00;;;;;;5135381;27;20071;-67
2023/08/09 09:16:17;;;;;;;15.48;3.50;;;19.40;91.70;;;;;;5136511;27;20043;-67
2023/08/09 09:18:48;;;;;;;11.20;3.47;;;19.40;92.50;;;;;;5136029;27;20068;-67
2023/08/09 09:21:17;;;;;;;;;;;19.30;93.10;;;;;;5136799;27;20522;-67
2023/08/09 09:23:43;;;;;;;4.32;2.30;;;19.10;94.10;;;;;;5135844;27;20391;-67
2023/08/09 09:26:11;;;;;;;5.50;2.40;;;19.00;93.90;;;;;;5136288;27;20034;-67
2023/08/09 09:28:47;;;;;;;4.78;2.33;;;18.90;93.90;;;;;;5135866;27;20023;-68
2023/08/09 09:31:17;;;;;;;3.78;2.03;;;18.80;94.50;;;;;;5136101;27;20463;-67
2023/08/09 09:33:52;;;;;;;5.72;2.30;;;18.80;94.60;;;;;;5135652;27;20031;-67
2023/08/09 09:36:18;;;;;;;4.13;2.33;;;18.70;94.90;;;;;;5136440;27;20034;-67
2023/08/09 09:38:44;;;;;;;4.45;2.67;;;18.60;95.80;;;;;;5135695;27;20098;-67
2023/08/09 09:41:11;;;;;;;8.68;2.40;;;18.60;96.20;;;;;;5135694;27;20092;-67
2023/08/09 09:43:41;;;;;;;5.68;2.50;;;18.60;96.60;;;;;;5135612;27;20019;-67
2023/08/09 09:46:20;;;;;;;8.60;2.30;;;18.50;96.40;;;;;;5135917;27;20027;-67
2023/08/09 09:49:01;;;;;;;4.63;2.20;;;18.40;96.70;;;;;;5135024;27;20043;-67
2023/08/09 09:51:27;;;;;;;3.30;2.17;;;18.40;96.30;;;;;;5135594;27;20490;-67
2023/08/09 09:53:53;;;;;;;4.25;2.20;;;18.50;96.00;;;;;;5135399;27;20041;-67
2023/08/09 09:56:19;;;;;;;3.03;1.90;;;18.40;96.30;;;;;;5135796;27;20105;-67
2023/08/09 09:58:46;;;;;;;5.45;2.50;;;18.30;96.80;;;;;;5117018;27;20448;-67
2023/08/09 10:01:23;;;;;;;5.57;2.70;;;18.30;98.10;;;;;;5135673;27;20450;-67
2023/08/09 10:03:53;;;;;;;4.75;2.38;;;18.30;98.80;;;;;;5135192;27;20027;-67
2023/08/09 10:06:27;;;;;;;4.97;2.40;;;18.20;99.80;;;;;;5117298;27;20443;-67
2023/08/09 10:08:56;;;;;;;3.67;1.85;;;18.20;99.90;;;;;;5135042;27;20027;-67
2023/08/09 10:11:23;;;;;;;3.65;2.53;;;18.10;99.90;;;;;;5135279;27;20035;-67
2023/08/09 10:13:50;;;;;;;8.98;2.67;;;18.10;99.90;;;;;;5134769;27;20020;-67
2023/08/09 10:16:20;;;;;;;3.55;2.55;;;18.00;99.90;;;;;;5136503;27;20027;-67
2023/08/09 10:18:53;;;;;;;4.95;2.60;;;18.00;99.90;;;;;;5135987;27;20094;-68
2023/08/09 10:21:20;;;;;;;4.25;2.20;;;17.90;99.90;;;;;;5136333;27;20035;-67
2023/08/09 10:23:54;;;;;;;5.10;2.60;;;17.90;99.90;;;;;;5135885;27;20035;-67
2023/08/09 10:26:28;;;;;;;4.50;2.70;;;17.90;99.90;;;;;;5136334;27;20042;-67
2023/08/09 10:29:04;;;;;;;3.35;2.33;;;17.90;99.90;;;;;;5135278;27;20466;-67
2023/08/09 10:31:51;;;;;;;9.10;2.47;;;17.90;99.90;;;;;;5134974;27;20097;-66
2023/08/09 10:34:18;;;;;;;6.68;2.90;;;17.90;99.90;;;;;;5134706;27;20206;-67
2023/08/09 10:36:53;;;;;;;2.85;2.13;;;17.80;99.90;;;;;;5134370;27;20031;-68
2023/08/09 10:39:20;;;;;;;8.68;2.60;;;17.80;99.90;;;;;;5130719;27;20023;-67
2023/08/09 10:41:56;;;;;;;4.32;2.08;;;17.80;99.90;;;;;;5113774;28;20092;-67
2023/08/09 10:44:49;;;;;;;4.15;2.28;;;17.80;99.90;;;;;;5113958;28;20101;-67
2023/08/09 10:47:19;;;;;;;2.97;2.30;;;17.80;99.90;;;;;;5092140;28;20383;-68
2023/08/09 10:49:47;;;;;;;4.45;2.42;;;17.70;99.90;;;;;;5113508;28;20128;-67
2023/08/09 10:52:17;;;;;;;4.65;2.65;;;17.70;99.90;;;;;;5114106;28;20019;-66
2023/08/09 10:54:43;;;;;;;6.63;2.40;;;17.70;99.90;;;;;;5113658;28;20054;-68
2023/08/09 10:57:10;;;;;;;3.17;2.40;;;17.80;99.90;;;;;;5114085;28;20035;-66
2023/08/09 10:59:46;;;;;;;5.32;2.17;;;17.80;99.90;;;;;;5113786;28;20467;-66
2023/08/09 11:02:15;;;;;;;3.03;2.10;;;17.80;99.90;;;;;;5114169;28;20459;-67
2023/08/09 11:04:43;;;;;;;4.72;2.50;;;17.90;99.90;;;;;;5095805;28;20038;-67
2023/08/09 11:07:19;;;;;;;4.03;2.50;;;17.90;99.90;;;;;;5113849;28;20479;-67
2023/08/09 11:09:44;;;;;;;6.03;2.20;;;18.00;99.90;;;;;;5113510;28;20102;-67
2023/08/09 11:12:14;;;;;;;4.40;2.42;;;18.00;99.90;;;;;;5113426;28;20123;-67
2023/08/09 11:14:39;;;;;;;5.22;2.58;;;18.00;99.90;;;;;;5113569;28;20031;-67
2023/08/09 11:17:12;;;;;;;4.43;2.38;;;17.90;99.90;;;;;;5113127;28;20349;-67
2023/08/09 11:19:37;;;;;;;7.07;2.58;;;18.00;99.90;;;;;;5113477;28;20444;-67
2023/08/09 11:22:03;;;;;;;5.10;2.60;;;18.00;99.90;;;;;;5112989;28;20027;-67
2023/08/09 11:24:29;;;;;;;4.03;2.35;;;18.00;99.90;;;;;;5095298;28;20039;-67
2023/08/09 11:26:57;;;;;;;3.65;2.22;;;18.10;99.90;;;;;;5113111;28;20031;-67
2023/08/09 11:29:25;;;;;;;4.55;2.67;;;18.10;99.90;;;;;;5113488;28;20023;-67
2023/08/09 11:31:55;;;;;;;5.03;2.70;;;18.10;99.90;;;;;;5112852;28;20054;-66
2023/08/09 11:34:23;;;;;;;2.67;2.20;;;18.10;99.90;;;;;;5113522;28;20475;-67
2023/08/09 11:36:52;;;;;;;3.95;2.30;;;18.10;99.90;;;;;;5112756;28;20027;-67
2023/08/09 11:39:19;;;;;;;4.50;2.30;;;18.20;99.90;;;;;;5113229;28;20118;-67
2023/08/09 11:41:51;;;;;;;5.10;2.38;;;18.20;99.90;;;;;;5113319;28;20027;-67
2023/08/09 11:44:21;;;;;;;4.03;2.65;;;18.20;99.90;;;;;;5130984;27;20063;-67
2023/08/09 11:46:47;;;;;;;3.50;2.47;;;18.30;99.90;;;;;;5133836;27;20046;-67
2023/08/09 11:49:13;;;;;;;3.53;2.50;;;18.40;99.90;;;;;;5133553;27;20471;-66
2023/08/09 11:51:39;;;;;;;3.10;1.90;;;18.40;99.90;;;;;;5133853;28;20027;-66
2023/08/09 11:54:08;;;;;;;4.38;1.90;;;18.50;99.90;;;;;;5133269;28;20031;-66
2023/08/09 11:56:37;;;;;;;3.30;2.40;;;18.60;99.90;;;;;;5133773;28;20027;-66
2023/08/09 11:59:05;;;;;;;3.90;2.30;;;18.80;99.90;;;;;;5132952;28;20467;-68
2023/08/09 12:01:36;;;;;;;2.65;2.05;;;18.80;99.90;;;;;;5133610;28;20360;-67
2023/08/09 12:04:07;;;;;;;5.47;2.60;;;19.00;99.90;;;;;;5133209;28;20031;-67
2023/08/09 12:06:40;;;;;;;3.33;2.10;;;19.10;99.90;;;;;;5133570;28;20064;-67
2023/08/09 12:09:24;;;;;;;4.05;2.20;;;19.10;99.90;;;;;;5133259;28;20031;-67
2023/08/09 12:11:50;;;;;;;3.95;2.22;;;19.10;99.90;;;;;;5133249;28;20047;-68
2023/08/09 12:14:15;;;;;;;3.55;2.30;;;19.10;99.90;;;;;;5133298;28;20034;-68
2023/08/09 12:16:41;;;;;;;4.30;2.13;;;19.10;99.90;;;;;;5133437;28;20027;-67
2023/08/09 12:19:07;;;;;;;2.85;2.10;;;19.10;99.90;;;;;;5132664;28;20023;-67
2023/08/09 12:21:32;;;;;;;2.65;2.00;;;19.10;99.90;;;;;;5133144;28;20015;-67
2023/08/09 12:23:58;;;;;;;6.20;2.60;;;19.10;99.90;;;;;;5132731;28;20019;-67
2023/08/09 12:26:23;;;;;;;4.03;2.10;;;19.10;99.90;;;;;;5133409;28;20023;-67
2023/08/09 12:28:49;;;;;;;5.05;2.45;;;19.20;99.90;;;;;;5133104;28;20471;-73
2023/08/09 12:31:15;;;;;;;3.30;2.58;;;19.20;99.90;;;;;;5133103;28;20027;-67
2023/08/09 12:33:40;;;;;;;11.20;6.32;;;19.20;99.90;;;;;;5133325;28;20072;-67
2023/08/09 12:36:07;;;;;;;4.03;2.70;;;19.20;99.90;;;;;;5129080;28;20053;-67
2023/08/09 12:38:33;;;;;;;4.63;2.30;;;19.20;99.90;;;;;;5133535;28;20054;-67
2023/08/09 12:40:59;;;;;;;4.05;2.28;;;19.20;99.90;;;;;;5132967;28;20023;-68
2023/08/09 12:43:24;;;;;;;6.57;2.58;;;19.20;99.90;;;;;;5133286;28;20459;-67
2023/08/09 12:45:50;;;;;;;6.35;2.92;;;19.20;99.90;;;;;;5133260;28;20080;-67
2023/08/09 12:48:34;;;;;;;3.70;2.45;;;19.20;99.90;;;;;;5134705;27;20478;-67